Time;durP1;ratioP1;P1;durP2;ratioP2;P2;SDS_P1;SDS_P2;PMS_P1;PMS_P2;Temp;Humidity;BMP_temperature;BMP_pressure;BME280_temperature;BME280_humidity;BME280_pressure;Samples;Min_cycle;Max_cycle;Signal;HPM_P1;HPM_P2
2022/10/20 00:02:09;;;;;;;;;;;;;;;;;;5135351;27;19912;-38
2022/10/20 00:04:35;;;;;;;;;;;;;;;;;;5134889;27;20416;-38
2022/10/20 00:07:01;;;;;;;;;;;;;;;;;;5134839;27;19926;-38
2022/10/20 00:09:26;;;;;;;;;;;;;;;;;;5135290;27;19914;-38
2022/10/20 00:11:52;;;;;;;;;;;;;;;;;;5134704;27;20102;-38
2022/10/20 00:14:18;;;;;;;;;;;;;;;;;;5131666;27;19927;-38
2022/10/20 00:16:44;;;;;;;;;;;;;;;;;;5134883;27;19949;-38
2022/10/20 00:19:10;;;;;;;;;;;;;;;;;;5152832;27;19910;-38
2022/10/20 00:21:36;;;;;;;;;;;;;;;;;;5136828;27;19907;-38
2022/10/20 00:24:02;;;;;;;;;;;;;;;;;;5135254;27;19907;-38
2022/10/20 00:26:28;;;;;;;;;;;;;;;;;;5134998;27;19907;-38
2022/10/20 00:28:53;;;;;;;;;;;;;;;;;;5132854;27;19911;-38
2022/10/20 00:31:19;;;;;;;;;;;;;;;;;;5135173;27;19908;-38
2022/10/20 00:33:45;;;;;;;;;;;;;;;;;;5134062;27;19907;-38
2022/10/20 00:36:11;;;;;;;;;;;;;;;;;;5135028;27;19907;-38
2022/10/20 00:38:37;;;;;;;;;;;;;;;;;;5133879;27;19960;-39
2022/10/20 00:41:03;;;;;;;;;;;;;;;;;;5135080;27;19946;-38
2022/10/20 00:43:29;;;;;;;;;;;;;;;;;;5134855;27;19912;-38
2022/10/20 00:45:55;;;;;;;;;;;;;;;;;;5128420;27;19908;-38
2022/10/20 00:48:21;;;;;;;;;;;;;;;;;;5114193;28;20259;-38
2022/10/20 00:50:46;;;;;;;;;;;;;;;;;;5115867;28;19931;-38
2022/10/20 00:53:12;;;;;;;;;;;;;;;;;;5134242;27;20375;-38
2022/10/20 00:55:38;;;;;;;;;;;;;;;;;;5133271;27;19950;-38
2022/10/20 00:58:04;;;;;;;;;;;;;;;;;;5134824;27;19921;-38
2022/10/20 01:00:30;;;;;;;;;;;;;;;;;;5134235;27;20269;-38
2022/10/20 01:02:56;;;;;;;;;;;;;;;;;;5132136;27;19942;-38
2022/10/20 01:05:22;;;;;;;;;;;;;;;;;;5134108;27;20015;-38
2022/10/20 01:07:47;;;;;;;;;;;;;;;;;;5133283;27;20436;-37
2022/10/20 01:10:13;;;;;;;;;;;;;;;;;;5134345;27;19911;-38
2022/10/20 01:12:39;;;;;;;;;;;;;;;;;;5142125;27;19911;-38
2022/10/20 01:15:06;;;;;;;;;;;;;;;;;;5141952;27;19930;-40
2022/10/20 01:17:32;;;;;;;;;;;;;;;;;;5134164;27;19912;-38
2022/10/20 01:19:58;;;;;;;;;;;;;;;;;;5140137;27;19912;-40
2022/10/20 01:22:24;;;;;;;;;;;;;;;;;;5143121;27;20390;-40
2022/10/20 01:24:50;;;;;;;;;;;;;;;;;;5140334;27;19913;-40
2022/10/20 01:27:15;;;;;;;;;;;;;;;;;;5143076;27;19975;-40
2022/10/20 01:29:41;;;;;;;;;;;;;;;;;;5141801;27;19908;-38
2022/10/20 01:32:07;;;;;;;;;;;;;;;;;;5141403;27;19922;-40
2022/10/20 01:34:33;;;;;;;;;;;;;;;;;;5141840;27;20324;-42
2022/10/20 01:36:59;;;;;;;;;;;;;;;;;;5139481;27;19936;-40
2022/10/20 01:39:25;;;;;;;;;;;;;;;;;;5142681;27;19908;-40
2022/10/20 01:41:51;;;;;;;;;;;;;;;;;;5138797;27;19953;-40
2022/10/20 01:44:16;;;;;;;;;;;;;;;;;;5140225;27;19912;-40
2022/10/20 01:46:42;;;;;;;;;;;;;;;;;;5133164;27;19907;-40
2022/10/20 01:49:08;;;;;;;;;;;;;;;;;;5133809;27;20421;-40
2022/10/20 01:51:34;;;;;;;;;;;;;;;;;;5133349;27;19914;-42
2022/10/20 01:54:00;;;;;;;;;;;;;;;;;;5131171;27;19911;-40
2022/10/20 01:56:26;;;;;;;;;;;;;;;;;;5133833;27;19914;-39
2022/10/20 01:58:52;;;;;;;;;;;;;;;;;;5133064;27;20296;-40
2022/10/20 02:01:18;;;;;;;;;;;;;;;;;;5133481;27;19999;-39
2022/10/20 02:03:44;;;;;;;;;;;;;;;;;;5132601;27;19964;-40
2022/10/20 02:06:09;;;;;;;;;;;;;;;;;;5132933;27;19996;-39
2022/10/20 02:08:35;;;;;;;;;;;;;;;;;;5132839;28;19957;-41
2022/10/20 02:11:01;;;;;;;;;;;;;;;;;;5132129;28;20381;-40
2022/10/20 02:13:27;;;;;;;;;;;;;;;;;;5119182;27;19912;-40
2022/10/20 02:15:53;;;;;;;;;;;;;;;;;;5134426;27;19926;-40
2022/10/20 02:18:19;;;;;;;;;;;;;;;;;;5154330;27;19938;-38
2022/10/20 02:20:45;;;;;;;;;;;;;;;;;;5142296;27;19908;-38
2022/10/20 02:23:10;;;;;;;;;;;;;;;;;;5133474;28;19946;-40
2022/10/20 02:25:36;;;;;;;;;;;;;;;;;;5133199;28;19908;-41
2022/10/20 02:28:02;;;;;;;;;;;;;;;;;;5131435;28;19912;-39
2022/10/20 02:30:28;;;;;;;;;;;;;;;;;;5133302;28;20362;-40
2022/10/20 02:32:54;;;;;;;;;;;;;;;;;;5132524;28;20364;-40
2022/10/20 02:35:20;;;;;;;;;;;;;;;;;;5133073;28;20017;-40
2022/10/20 02:37:46;;;;;;;;;;;;;;;;;;5132502;28;20309;-40
2022/10/20 02:40:12;;;;;;;;;;;;;;;;;;5133034;28;19909;-40
2022/10/20 02:42:39;;;;;;;;;;;;;;;;;;5129383;27;19911;-42
2022/10/20 02:45:05;;;;;;;;;;;;;;;;;;5116413;28;20373;-40
2022/10/20 02:47:31;;;;;;;;;;;;;;;;;;5112659;28;19930;-39
2022/10/20 02:49:57;;;;;;;;;;;;;;;;;;5111767;28;20558;-39
2022/10/20 02:52:23;;;;;;;;;;;;;;;;;;5129454;27;19915;-42
2022/10/20 02:54:49;;;;;;;;;;;;;;;;;;5142577;27;19958;-39
2022/10/20 02:57:14;;;;;;;;;;;;;;;;;;5142277;27;20310;-40
2022/10/20 02:59:40;;;;;;;;;;;;;;;;;;5138074;27;19923;-40
2022/10/20 03:02:06;;;;;;;;;;;;;;;;;;5146550;27;20276;-40
2022/10/20 03:04:32;;;;;;;;;;;;;;;;;;5142100;27;19953;-39
2022/10/20 03:06:58;;;;;;;;;;;;;;;;;;5114760;27;19980;-40
2022/10/20 03:09:24;;;;;;;;;;;;;;;;;;5112197;28;19908;-40
2022/10/20 03:11:50;;;;;;;;;;;;;;;;;;5108705;28;20009;-40
2022/10/20 03:14:15;;;;;;;;;;;;;;;;;;5112299;28;19920;-40
2022/10/20 03:16:41;;;;;;;;;;;;;;;;;;5113456;28;20006;-42
2022/10/20 03:19:07;;;;;;;;;;;;;;;;;;5115743;28;19908;-39
2022/10/20 03:21:33;;;;;;;;;;;;;;;;;;5115463;28;19912;-40
2022/10/20 03:23:59;;;;;;;;;;;;;;;;;;5114504;28;20541;-40
2022/10/20 03:26:25;;;;;;;;;;;;;;;;;;5115309;28;19907;-40
2022/10/20 03:28:51;;;;;;;;;;;;;;;;;;5115471;28;20311;-39
2022/10/20 03:31:16;;;;;;;;;;;;;;;;;;5113703;28;19912;-39
2022/10/20 03:33:42;;;;;;;;;;;;;;;;;;5114922;28;19920;-42
2022/10/20 03:36:08;;;;;;;;;;;;;;;;;;5113797;28;19924;-40
2022/10/20 03:38:34;;;;;;;;;;;;;;;;;;5115666;28;19908;-39
2022/10/20 03:41:00;;;;;;;;;;;;;;;;;;5114582;28;19912;-40
2022/10/20 03:43:26;;;;;;;;;;;;;;;;;;5112344;28;19919;-40
2022/10/20 03:45:52;;;;;;;;;;;;;;;;;;5113395;28;20375;-40
2022/10/20 03:48:18;;;;;;;;;;;;;;;;;;5113959;28;19943;-40
2022/10/20 03:50:43;;;;;;;;;;;;;;;;;;5112015;28;19912;-42
2022/10/20 03:53:09;;;;;;;;;;;;;;;;;;5113907;28;20264;-39
2022/10/20 03:55:35;;;;;;;;;;;;;;;;;;5112233;28;20261;-40
2022/10/20 03:58:01;;;;;;;;;;;;;;;;;;5112870;28;19903;-40
2022/10/20 04:00:27;;;;;;;;;;;;;;;;;;5111498;27;20006;-40
2022/10/20 04:02:53;;;;;;;;;;;;;;;;;;5113967;28;19916;-40
2022/10/20 04:05:19;;;;;;;;;;;;;;;;;;5119781;27;19942;-40
2022/10/20 04:07:45;;;;;;;;;;;;;;;;;;5114689;27;21285;-43
2022/10/20 04:10:11;;;;;;;;;;;;;;;;;;5156279;27;19959;-37
2022/10/20 04:12:37;;;;;;;;;;;;;;;;;;5155853;27;20267;-37
2022/10/20 04:15:03;;;;;;;;;;;;;;;;;;5155437;27;19922;-37
2022/10/20 04:17:29;;;;;;;;;;;;;;;;;;5156299;27;20363;-37
2022/10/20 04:19:55;;;;;;;;;;;;;;;;;;5151438;27;19908;-37
2022/10/20 04:22:21;;;;;;;;;;;;;;;;;;5134940;27;20010;-38
2022/10/20 04:24:47;;;;;;;;;;;;;;;;;;5149009;27;19914;-39
2022/10/20 04:27:12;;;;;;;;;;;;;;;;;;5155681;27;20418;-39
2022/10/20 04:29:38;;;;;;;;;;;;;;;;;;5155981;27;19907;-39
2022/10/20 04:32:04;;;;;;;;;;;;;;;;;;5130949;27;19973;-40
2022/10/20 04:34:30;;;;;;;;;;;;;;;;;;5133694;27;19919;-39
2022/10/20 04:36:56;;;;;;;;;;;;;;;;;;5133408;27;19968;-40
2022/10/20 04:39:22;;;;;;;;;;;;;;;;;;5134223;27;19914;-40
2022/10/20 04:41:48;;;;;;;;;;;;;;;;;;5133113;27;20420;-40
2022/10/20 04:44:14;;;;;;;;;;;;;;;;;;5134279;27;20264;-39
2022/10/20 04:46:39;;;;;;;;;;;;;;;;;;5134770;27;19913;-40
2022/10/20 04:49:05;;;;;;;;;;;;;;;;;;5133990;27;19917;-39
2022/10/20 04:51:31;;;;;;;;;;;;;;;;;;5134641;27;19908;-39
2022/10/20 04:53:57;;;;;;;;;;;;;;;;;;5133515;27;19933;-40
2022/10/20 04:56:23;;;;;;;;;;;;;;;;;;5134532;27;19911;-39
2022/10/20 04:58:49;;;;;;;;;;;;;;;;;;5133583;27;19908;-40
2022/10/20 05:01:15;;;;;;;;;;;;;;;;;;5134854;27;19951;-39
2022/10/20 05:03:41;;;;;;;;;;;;;;;;;;5134782;27;19915;-39
2022/10/20 05:06:07;;;;;;;;;;;;;;;;;;5122379;27;19931;-40
2022/10/20 05:08:32;;;;;;;;;;;;;;;;;;5113585;28;19912;-39
2022/10/20 05:10:58;;;;;;;;;;;;;;;;;;5113111;28;20319;-39
2022/10/20 05:13:24;;;;;;;;;;;;;;;;;;5113421;28;20006;-39
2022/10/20 05:15:50;;;;;;;;;;;;;;;;;;5112910;28;19923;-40
2022/10/20 05:18:16;;;;;;;;;;;;;;;;;;5113663;28;19908;-40
2022/10/20 05:20:42;;;;;;;;;;;;;;;;;;5113334;28;20003;-40
2022/10/20 05:23:08;;;;;;;;;;;;;;;;;;5112862;28;20653;-39
2022/10/20 05:25:33;;;;;;;;;;;;;;;;;;5113309;28;19915;-39
2022/10/20 05:27:59;;;;;;;;;;;;;;;;;;5112833;28;19954;-40
2022/10/20 05:30:25;;;;;;;;;;;;;;;;;;5113281;28;19952;-39
2022/10/20 05:32:51;;;;;;;;;;;;;;;;;;5112630;28;19916;-40
2022/10/20 05:35:17;;;;;;;;;;;;;;;;;;5113434;28;19969;-40
2022/10/20 05:37:43;;;;;;;;;;;;;;;;;;5112762;28;20395;-40
2022/10/20 05:40:09;;;;;;;;;;;;;;;;;;5113084;28;19908;-39
2022/10/20 05:42:34;;;;;;;;;;;;;;;;;;5113309;28;19971;-40
2022/10/20 05:45:00;;;;;;;;;;;;;;;;;;5111968;28;19915;-39
2022/10/20 05:47:26;;;;;;;;;;;;;;;;;;5113602;28;19907;-40
2022/10/20 05:49:52;;;;;;;;;;;;;;;;;;5113005;28;20352;-39
2022/10/20 05:52:18;;;;;;;;;;;;;;;;;;5113178;28;19908;-39
2022/10/20 05:54:44;;;;;;;;;;;;;;;;;;5112958;28;19916;-39
2022/10/20 05:57:10;;;;;;;;;;;;;;;;;;5112615;28;20272;-39
2022/10/20 05:59:36;;;;;;;;;;;;;;;;;;5112713;28;19908;-39
2022/10/20 06:02:02;;;;;;;;;;;;;;;;;;5112298;28;20422;-38
2022/10/20 06:04:28;;;;;;;;;;;;;;;;;;5111297;28;19958;-39
2022/10/20 06:06:53;;;;;;;;;;;;;;;;;;5133467;27;19923;-39
2022/10/20 06:09:19;;;;;;;;;;;;;;;;;;5154501;27;19907;-39
2022/10/20 06:11:45;;;;;;;;;;;;;;;;;;5154204;27;20363;-39
2022/10/20 06:14:11;;;;;;;;;;;;;;;;;;5140510;27;19926;-39
2022/10/20 06:16:37;;;;;;;;;;;;;;;;;;5133253;28;19907;-39
2022/10/20 06:19:04;;;;;;;;;;;;;;;;;;5132632;28;20267;-39
2022/10/20 06:21:29;;;;;;;;;;;;;;;;;;5136606;27;20422;-39
2022/10/20 06:23:55;;;;;;;;;;;;;;;;;;5132520;28;19998;-39
2022/10/20 06:26:21;;;;;;;;;;;;;;;;;;5133542;28;19914;-39
2022/10/20 06:28:47;;;;;;;;;;;;;;;;;;5139052;27;20326;-40
2022/10/20 06:31:13;;;;;;;;;;;;;;;;;;5153245;27;20011;-39
2022/10/20 06:33:39;;;;;;;;;;;;;;;;;;5153908;27;19907;-39
2022/10/20 06:36:05;;;;;;;;;;;;;;;;;;5152957;27;19958;-39
2022/10/20 06:38:31;;;;;;;;;;;;;;;;;;5153831;27;19960;-39
2022/10/20 06:40:57;;;;;;;;;;;;;;;;;;5153101;27;20333;-40
2022/10/20 06:43:22;;;;;;;;;;;;;;;;;;5154072;27;19918;-39
2022/10/20 06:45:48;;;;;;;;;;;;;;;;;;5136006;27;19914;-41
2022/10/20 06:48:14;;;;;;;;;;;;;;;;;;5131923;27;19914;-39
2022/10/20 06:50:40;;;;;;;;;;;;;;;;;;5136119;27;20374;-40
2022/10/20 06:53:06;;;;;;;;;;;;;;;;;;5136370;27;19907;-39
2022/10/20 06:55:32;;;;;;;;;;;;;;;;;;5137613;27;19915;-41
2022/10/20 06:57:58;;;;;;;;;;;;;;;;;;5136370;27;20279;-40
2022/10/20 07:00:24;;;;;;;;;;;;;;;;;;5142890;27;20001;-38
2022/10/20 07:02:49;;;;;;;;;;;;;;;;;;5157199;27;19915;-40
2022/10/20 07:05:15;;;;;;;;;;;;;;;;;;5155822;27;20287;-38
2022/10/20 07:07:41;;;;;;;;;;;;;;;;;;5157183;27;20057;-38
2022/10/20 07:10:07;;;;;;;;;;;;;;;;;;5156449;27;19953;-38
2022/10/20 07:12:33;;;;;;;;;;;;;;;;;;5157484;27;19913;-38
2022/10/20 07:14:59;;;;;;;;;;;;;;;;;;5155942;27;19938;-40
2022/10/20 07:17:25;;;;;;;;;;;;;;;;;;5157306;27;19907;-37
2022/10/20 07:19:51;;;;;;;;;;;;;;;;;;5134686;27;19908;-40
2022/10/20 07:22:17;;;;;;;;;;;;;;;;;;5135424;27;19914;-40
2022/10/20 07:24:42;;;;;;;;;;;;;;;;;;5136409;27;20010;-40
2022/10/20 07:27:08;;;;;;;;;;;;;;;;;;5135413;27;19911;-40
2022/10/20 07:29:34;;;;;;;;;;;;;;;;;;5136226;27;19907;-40
2022/10/20 07:32:00;;;;;;;;;;;;;;;;;;5116878;27;20054;-40
2022/10/20 07:34:26;;;;;;;;;;;;;;;;;;5135743;27;19915;-40
2022/10/20 07:36:52;;;;;;;;;;;;;;;;;;5135842;27;19942;-38
2022/10/20 07:39:18;;;;;;;;;;;;;;;;;;5136387;27;19979;-38
2022/10/20 07:41:46;;;;;;;;;;;;;;;;;;5135839;27;20253;-37
2022/10/20 07:44:11;;;;;;;;;;;;;;;;;;5135190;27;19903;-38
2022/10/20 07:46:37;;;;;;;;;;;;;;;;;;5135704;27;19915;-37
2022/10/20 07:49:03;;;;;;;;;;;;;;;;;;5135074;27;20269;-38
2022/10/20 07:51:30;;;;;;;;;;;;;;;;;;5135651;27;20011;-38
2022/10/20 07:53:56;;;;;;;;;;;;;;;;;;5134395;27;20264;-38
2022/10/20 07:56:22;;;;;;;;;;;;;;;;;;5135754;27;20002;-37
2022/10/20 07:58:48;;;;;;;;;;;;;;;;;;5135771;27;19955;-38
2022/10/20 08:01:14;;;;;;;;;;;;;;;;;;5136806;27;19911;-38
2022/10/20 08:03:39;;;;;;;;;;;;;;;;;;5135589;27;20268;-38
2022/10/20 08:06:05;;;;;;;;;;;;;;;;;;5133769;27;19926;-38
2022/10/20 08:08:31;;;;;;;;;;;;;;;;;;5139908;27;19911;-38
2022/10/20 08:10:57;;;;;;;;;;;;;;;;;;5142219;27;19907;-37
2022/10/20 08:13:23;;;;;;;;;;;;;;;;;;5139753;27;21243;-38
2022/10/20 08:15:49;;;;;;;;;;;;;;;;;;5135958;27;20275;-37
2022/10/20 08:18:15;;;;;;;;;;;;;;;;;;5117576;27;19908;-38
2022/10/20 08:20:41;;;;;;;;;;;;;;;;;;5145016;27;19942;-38
2022/10/20 08:23:07;;;;;;;;;;;;;;;;;;5154744;27;20368;-38
2022/10/20 08:25:33;;;;;;;;;;;;;;;;;;5155577;27;19919;-38
2022/10/20 08:27:59;;;;;;;;;;;;;;;;;;5155142;27;20322;-38
2022/10/20 08:30:25;;;;;;;;;;;;;;;;;;5155682;27;19950;-37
2022/10/20 08:32:51;;;;;;;;;;;;;;;;;;5155196;27;19907;-39
2022/10/20 08:35:17;;;;;;;;;;;;;;;;;;5154922;27;19958;-38
2022/10/20 08:37:43;;;;;;;;;;;;;;;;;;5155723;27;19911;-38
2022/10/20 08:40:09;;;;;;;;;;;;;;;;;;5154977;27;20344;-37
2022/10/20 08:42:35;;;;;;;;;;;;;;;;;;5155287;27;19959;-38
2022/10/20 08:45:00;;;;;;;;;;;;;;;;;;5154682;27;19907;-38
2022/10/20 08:47:26;;;;;;;;;;;;;;;;;;5155435;27;19919;-37
2022/10/20 08:49:52;;;;;;;;;;;;;;;;;;5155072;27;19907;-40
2022/10/20 08:52:18;;;;;;;;;;;;;;;;;;5138426;27;20287;-37
2022/10/20 08:54:44;;;;;;;;;;;;;;;;;;5134475;27;20344;-38
2022/10/20 08:57:10;;;;;;;;;;;;;;;;;;5133826;27;19908;-38
2022/10/20 08:59:36;;;;;;;;;;;;;;;;;;5134421;27;20414;-37
2022/10/20 09:02:02;;;;;;;;;;;;;;;;;;5133596;27;20002;-40
2022/10/20 09:04:27;;;;;;;;;;;;;;;;;;5134339;27;19908;-37
2022/10/20 09:06:53;;;;;;;;;;;;;;;;;;5132541;27;19972;-42
2022/10/20 09:09:19;;;;;;;;;;;;;;;;;;5133763;27;19959;-40
2022/10/20 09:11:45;;;;;;;;;;;;;;;;;;5133479;27;19993;-40
2022/10/20 09:14:11;;;;;;;;;;;;;;;;;;5133255;27;19907;-40
2022/10/20 09:16:37;;;;;;;;;;;;;;;;;;5134086;27;19915;-40
2022/10/20 09:19:03;;;;;;;;;;;;;;;;;;5133192;27;19957;-40
2022/10/20 09:21:31;;;;;;;;;;;;;;;;;;5150923;27;19907;-40
2022/10/20 09:23:57;;;;;;;;;;;;;;;;;;5154232;27;20315;-42
2022/10/20 09:26:23;;;;;;;;;;;;;;;;;;5154689;27;19951;-38
2022/10/20 09:28:49;;;;;;;;;;;;;;;;;;5154633;27;19907;-40
2022/10/20 09:31:15;;;;;;;;;;;;;;;;;;5153649;27;20135;-40
2022/10/20 09:33:41;;;;;;;;;;;;;;;;;;5154196;27;19907;-39
2022/10/20 09:36:06;;;;;;;;;;;;;;;;;;5153788;27;20268;-40
2022/10/20 09:38:32;;;;;;;;;;;;;;;;;;5154725;27;20270;-39
2022/10/20 09:40:58;;;;;;;;;;;;;;;;;;5153559;27;19907;-42
2022/10/20 09:43:24;;;;;;;;;;;;;;;;;;5154033;27;20359;-40
2022/10/20 09:45:50;;;;;;;;;;;;;;;;;;5154370;27;19907;-39
2022/10/20 09:48:16;;;;;;;;;;;;;;;;;;5153510;27;20604;-39
2022/10/20 09:50:42;;;;;;;;;;;;;;;;;;5151931;27;19907;-39
2022/10/20 09:53:08;;;;;;;;;;;;;;;;;;5132066;27;20265;-40
2022/10/20 09:55:34;;;;;;;;;;;;;;;;;;5133469;27;19916;-39
2022/10/20 09:57:59;;;;;;;;;;;;;;;;;;5132780;27;19914;-40
2022/10/20 10:00:25;;;;;;;;;;;;;;;;;;5133482;27;19908;-39
2022/10/20 10:02:51;;;;;;;;;;;;;;;;;;5133213;27;19911;-40
2022/10/20 10:05:18;;;;;;;;;;;;;;;;;;5131537;27;19919;-40
2022/10/20 10:07:44;;;;;;;;;;;;;;;;;;5133320;27;19911;-40
2022/10/20 10:10:09;;;;;;;;;;;;;;;;;;5132644;27;19914;-40
2022/10/20 10:12:35;;;;;;;;;;;;;;;;;;5132954;28;19999;-39
2022/10/20 10:15:01;;;;;;;;;;;;;;;;;;5132394;28;19923;-40
2022/10/20 10:17:27;;;;;;;;;;;;;;;;;;5132908;28;19911;-39
2022/10/20 10:19:53;;;;;;;;;;;;;;;;;;5136355;27;19928;-39
2022/10/20 10:22:19;;;;;;;;;;;;;;;;;;5153409;27;19994;-40
2022/10/20 10:24:45;;;;;;;;;;;;;;;;;;5157575;27;20314;-39
2022/10/20 10:27:11;;;;;;;;;;;;;;;;;;5157296;27;19907;-40
2022/10/20 10:29:37;;;;;;;;;;;;;;;;;;5158374;27;20347;-40
2022/10/20 10:32:03;;;;;;;;;;;;;;;;;;5157279;27;20002;-40
2022/10/20 10:34:30;;;;;;;;;;;;;;;;;;5158049;27;19915;-40
2022/10/20 10:36:56;;;;;;;;;;;;;;;;;;5150093;27;19981;-41
2022/10/20 10:39:22;;;;;;;;;;;;;;;;;;5136604;27;19907;-40
2022/10/20 10:41:48;;;;;;;;;;;;;;;;;;5137105;27;19907;-40
2022/10/20 10:44:14;;;;;;;;;;;;;;;;;;5136337;27;19969;-39
2022/10/20 10:46:40;;;;;;;;;;;;;;;;;;5137409;27;20247;-39
2022/10/20 10:49:06;;;;;;;;;;;;;;;;;;5136428;27;19918;-40
2022/10/20 10:51:31;;;;;;;;;;;;;;;;;;5136787;27;19907;-39
2022/10/20 10:53:57;;;;;;;;;;;;;;;;;;5136781;27;19908;-41
2022/10/20 10:56:23;;;;;;;;;;;;;;;;;;5136371;27;19968;-40
2022/10/20 10:58:49;;;;;;;;;;;;;;;;;;5137147;27;19914;-40
2022/10/20 11:01:15;;;;;;;;;;;;;;;;;;5135501;27;20284;-40
2022/10/20 11:03:41;;;;;;;;;;;;;;;;;;5136704;27;19915;-39
2022/10/20 11:06:07;;;;;;;;;;;;;;;;;;5135873;27;20002;-40
2022/10/20 11:08:33;;;;;;;;;;;;;;;;;;5136838;27;19915;-40
2022/10/20 11:11:00;;;;;;;;;;;;;;;;;;5136493;27;19907;-42
2022/10/20 11:13:25;;;;;;;;;;;;;;;;;;5135632;27;20390;-39
2022/10/20 11:15:51;;;;;;;;;;;;;;;;;;5136531;27;19919;-40
2022/10/20 11:18:17;;;;;;;;;;;;;;;;;;5135653;27;19907;-39
2022/10/20 11:20:43;;;;;;;;;;;;;;;;;;5136421;27;20263;-40
2022/10/20 11:23:09;;;;;;;;;;;;;;;;;;5135005;27;19911;-40
2022/10/20 11:25:36;;;;;;;;;;;;;;;;;;5136077;27;19914;-40
2022/10/20 11:28:02;;;;;;;;;;;;;;;;;;5135628;27;19908;-41
2022/10/20 11:30:28;;;;;;;;;;;;;;;;;;5136089;27;20011;-39
2022/10/20 11:32:54;;;;;;;;;;;;;;;;;;5136077;27;19937;-40
2022/10/20 11:35:20;;;;;;;;;;;;;;;;;;5134254;27;20018;-40
2022/10/20 11:37:46;;;;;;;;;;;;;;;;;;5135588;27;19934;-39
2022/10/20 11:40:13;;;;;;;;;;;;;;;;;;5124768;27;19922;-40
2022/10/20 11:42:39;;;;;;;;;;;;;;;;;;5122683;27;19912;-40
2022/10/20 11:45:05;;;;;;;;;;;;;;;;;;5129879;27;19962;-41
2022/10/20 11:47:31;;;;;;;;;;;;;;;;;;5124990;27;19912;-41
2022/10/20 11:49:57;;;;;;;;;;;;;;;;;;5126168;27;20348;-41
2022/10/20 11:52:23;;;;;;;;;;;;;;;;;;5132990;27;19954;-41
2022/10/20 11:54:48;;;;;;;;;;;;;;;;;;5127918;27;19945;-41
2022/10/20 11:57:14;;;;;;;;;;;;;;;;;;5129018;27;19918;-40
2022/10/20 11:59:40;;;;;;;;;;;;;;;;;;5129935;27;19907;-40
2022/10/20 12:02:06;;;;;;;;;;;;;;;;;;5122967;27;20258;-41
2022/10/20 12:04:32;;;;;;;;;;;;;;;;;;5131435;27;19915;-40
2022/10/20 12:06:58;;;;;;;;;;;;;;;;;;5121884;27;19919;-41
2022/10/20 12:09:24;;;;;;;;;;;;;;;;;;5131766;27;20004;-41
2022/10/20 12:11:49;;;;;;;;;;;;;;;;;;5120563;27;19908;-40
2022/10/20 12:14:15;;;;;;;;;;;;;;;;;;5145359;27;19907;-42
2022/10/20 12:16:41;;;;;;;;;;;;;;;;;;5135371;27;20280;-40
2022/10/20 12:19:07;;;;;;;;;;;;;;;;;;5137365;27;20344;-41
2022/10/20 12:21:33;;;;;;;;;;;;;;;;;;5135100;27;19957;-40
2022/10/20 12:24:02;;;;;;;;;;;;;;;;;;5135296;27;19994;-40
2022/10/20 12:26:28;;;;;;;;;;;;;;;;;;5134465;27;19908;-40
2022/10/20 12:28:54;;;;;;;;;;;;;;;;;;5135124;27;20401;-40
2022/10/20 12:31:20;;;;;;;;;;;;;;;;;;5155519;27;19907;-40
2022/10/20 12:33:46;;;;;;;;;;;;;;;;;;5155440;27;19952;-40
2022/10/20 12:36:12;;;;;;;;;;;;;;;;;;5154897;27;19915;-40
2022/10/20 12:38:38;;;;;;;;;;;;;;;;;;5155682;27;19911;-39
2022/10/20 12:41:04;;;;;;;;;;;;;;;;;;5155404;27;19934;-42
2022/10/20 12:43:30;;;;;;;;;;;;;;;;;;5154993;27;19943;-40
2022/10/20 12:45:56;;;;;;;;;;;;;;;;;;5155414;27;19907;-40
2022/10/20 12:48:22;;;;;;;;;;;;;;;;;;5153409;27;19915;-40
2022/10/20 12:50:49;;;;;;;;;;;;;;;;;;5151977;27;19915;-40
2022/10/20 12:53:14;;;;;;;;;;;;;;;;;;5133606;27;19918;-40
2022/10/20 12:55:40;;;;;;;;;;;;;;;;;;5134472;27;19916;-40
2022/10/20 12:58:06;;;;;;;;;;;;;;;;;;5134149;27;19914;-42
2022/10/20 13:00:32;;;;;;;;;;;;;;;;;;5133989;27;19954;-40
2022/10/20 13:02:58;;;;;;;;;;;;;;;;;;5134482;27;19914;-40
2022/10/20 13:05:24;;;;;;;;;;;;;;;;;;5133007;27;20008;-40
2022/10/20 13:07:55;;;;;;;;;;;;;;;;;;5146193;27;20017;-40
2022/10/20 13:10:21;;;;;;;;;;;;;;;;;;5153641;27;19907;-40
2022/10/20 13:12:47;;;;;;;;;;;;;;;;;;5154544;27;19933;-40
2022/10/20 13:15:13;;;;;;;;;;;;;;;;;;5153868;27;19919;-40
2022/10/20 13:17:39;;;;;;;;;;;;;;;;;;5154997;27;20272;-40
2022/10/20 13:20:05;;;;;;;;;;;;;;;;;;5149620;27;20329;-41
2022/10/20 13:22:31;;;;;;;;;;;;;;;;;;5133368;27;19943;-40
2022/10/20 13:24:57;;;;;;;;;;;;;;;;;;5133925;27;19920;-40
2022/10/20 13:27:22;;;;;;;;;;;;;;;;;;5133281;27;19915;-40
2022/10/20 13:29:48;;;;;;;;;;;;;;;;;;5134253;27;20344;-40
2022/10/20 13:32:14;;;;;;;;;;;;;;;;;;5133148;27;19915;-40
2022/10/20 13:34:40;;;;;;;;;;;;;;;;;;5133837;27;19915;-40
2022/10/20 13:37:06;;;;;;;;;;;;;;;;;;5133212;27;19931;-42
2022/10/20 13:39:32;;;;;;;;;;;;;;;;;;5133295;27;19943;-40
2022/10/20 13:41:58;;;;;;;;;;;;;;;;;;5133818;27;19907;-40
2022/10/20 13:44:24;;;;;;;;;;;;;;;;;;5132987;27;20275;-39
2022/10/20 13:46:49;;;;;;;;;;;;;;;;;;5133310;27;20010;-40
2022/10/20 13:49:15;;;;;;;;;;;;;;;;;;5114610;27;19907;-40
2022/10/20 13:51:41;;;;;;;;;;;;;;;;;;5133499;27;19915;-40
2022/10/20 13:54:07;;;;;;;;;;;;;;;;;;5133143;27;19907;-42
2022/10/20 13:56:33;;;;;;;;;;;;;;;;;;5133368;27;19961;-40
2022/10/20 13:58:59;;;;;;;;;;;;;;;;;;5134835;27;20386;-40
2022/10/20 14:01:25;;;;;;;;;;;;;;;;;;5132725;27;20010;-40
2022/10/20 14:03:51;;;;;;;;;;;;;;;;;;5133671;27;20268;-39
2022/10/20 14:06:17;;;;;;;;;;;;;;;;;;5132256;27;19926;-40
2022/10/20 14:08:42;;;;;;;;;;;;;;;;;;5133099;27;19911;-40
2022/10/20 14:11:10;;;;;;;;;;;;;;;;;;5132388;27;19914;-42
2022/10/20 14:13:36;;;;;;;;;;;;;;;;;;5140719;27;19915;-40
2022/10/20 14:16:01;;;;;;;;;;;;;;;;;;5153948;27;20359;-40
2022/10/20 14:18:27;;;;;;;;;;;;;;;;;;5153187;27;19918;-40
2022/10/20 14:20:53;;;;;;;;;;;;;;;;;;5141856;27;19907;-40
2022/10/20 14:23:19;;;;;;;;;;;;;;;;;;5132381;28;19907;-40
2022/10/20 14:25:45;;;;;;;;;;;;;;;;;;5132935;28;19914;-40
2022/10/20 14:28:11;;;;;;;;;;;;;;;;;;5132823;28;19908;-40
2022/10/20 14:30:37;;;;;;;;;;;;;;;;;;5133400;28;20354;-40
2022/10/20 14:33:04;;;;;;;;;;;;;;;;;;5133203;28;19911;-40
2022/10/20 14:35:30;;;;;;;;;;;;;;;;;;5132225;28;20006;-40
2022/10/20 14:37:56;;;;;;;;;;;;;;;;;;5133214;28;20364;-40
2022/10/20 14:40:21;;;;;;;;;;;;;;;;;;5132428;28;19915;-40
2022/10/20 14:42:47;;;;;;;;;;;;;;;;;;5133421;28;20002;-39
2022/10/20 14:45:13;;;;;;;;;;;;;;;;;;5132342;28;19908;-40
2022/10/20 14:47:39;;;;;;;;;;;;;;;;;;5132950;28;20256;-40
2022/10/20 14:50:05;;;;;;;;;;;;;;;;;;5133236;28;19997;-40
2022/10/20 14:52:31;;;;;;;;;;;;;;;;;;5132102;28;19911;-40
2022/10/20 14:54:57;;;;;;;;;;;;;;;;;;5133054;28;19919;-40
2022/10/20 14:57:22;;;;;;;;;;;;;;;;;;5131803;28;20380;-40
2022/10/20 14:59:48;;;;;;;;;;;;;;;;;;5124425;28;19959;-40
2022/10/20 15:02:17;;;;;;;;;;;;;;;;;;5127368;28;19915;-40
2022/10/20 15:04:43;;;;;;;;;;;;;;;;;;5112580;28;19954;-40
2022/10/20 15:07:09;;;;;;;;;;;;;;;;;;5118542;27;19923;-40
2022/10/20 15:09:35;;;;;;;;;;;;;;;;;;5115910;28;19951;-40
2022/10/20 15:12:01;;;;;;;;;;;;;;;;;;5131053;27;19961;-40
2022/10/20 15:14:27;;;;;;;;;;;;;;;;;;5134623;27;19966;-41
2022/10/20 15:16:52;;;;;;;;;;;;;;;;;;5134818;27;19911;-40
2022/10/20 15:19:18;;;;;;;;;;;;;;;;;;5119322;27;20002;-41
2022/10/20 15:21:44;;;;;;;;;;;;;;;;;;5122617;27;19972;-40
2022/10/20 15:24:10;;;;;;;;;;;;;;;;;;5113736;27;19915;-42
2022/10/20 15:26:36;;;;;;;;;;;;;;;;;;5126796;27;19907;-40
2022/10/20 15:29:03;;;;;;;;;;;;;;;;;;5116652;27;19907;-40
2022/10/20 15:31:29;;;;;;;;;;;;;;;;;;5124610;27;19911;-40
2022/10/20 15:33:54;;;;;;;;;;;;;;;;;;5129787;27;19916;-40
2022/10/20 15:36:20;;;;;;;;;;;;;;;;;;5132606;27;19919;-41
2022/10/20 15:38:46;;;;;;;;;;;;;;;;;;5124139;27;20022;-40
2022/10/20 15:41:12;;;;;;;;;;;;;;;;;;5122525;27;20420;-40
2022/10/20 15:43:38;;;;;;;;;;;;;;;;;;5132023;27;19913;-41
2022/10/20 15:46:04;;;;;;;;;;;;;;;;;;5121064;27;19920;-40
2022/10/20 15:48:30;;;;;;;;;;;;;;;;;;5094484;27;20079;-41
2022/10/20 15:50:56;;;;;;;;;;;;;;;;;;5122348;27;19919;-40
2022/10/20 15:53:22;;;;;;;;;;;;;;;;;;5133239;27;19976;-41
2022/10/20 15:55:48;;;;;;;;;;;;;;;;;;5119484;27;19915;-40
2022/10/20 15:58:14;;;;;;;;;;;;;;;;;;5132558;27;19912;-41
2022/10/20 16:00:40;;;;;;;;;;;;;;;;;;5118249;27;19962;-40
2022/10/20 16:03:06;;;;;;;;;;;;;;;;;;5134851;27;19914;-40
2022/10/20 16:05:32;;;;;;;;;;;;;;;;;;5118590;27;19919;-40
2022/10/20 16:07:58;;;;;;;;;;;;;;;;;;5134247;27;19964;-39
2022/10/20 16:10:23;;;;;;;;;;;;;;;;;;5132130;27;19908;-41
2022/10/20 16:12:49;;;;;;;;;;;;;;;;;;5133781;27;20328;-42
2022/10/20 16:15:15;;;;;;;;;;;;;;;;;;5131286;27;19919;-40
2022/10/20 16:17:41;;;;;;;;;;;;;;;;;;5133997;27;19939;-40
2022/10/20 16:20:07;;;;;;;;;;;;;;;;;;5133123;27;20360;-40
2022/10/20 16:22:33;;;;;;;;;;;;;;;;;;5117091;27;19914;-40
2022/10/20 16:25:02;;;;;;;;;;;;;;;;;;5113546;27;20041;-40
2022/10/20 16:27:28;;;;;;;;;;;;;;;;;;5124157;27;19912;-40
2022/10/20 16:29:53;;;;;;;;;;;;;;;;;;5132100;27;19918;-40
2022/10/20 16:32:19;;;;;;;;;;;;;;;;;;5129438;27;19954;-41
2022/10/20 16:34:45;;;;;;;;;;;;;;;;;;5123058;27;19916;-40
2022/10/20 16:37:11;;;;;;;;;;;;;;;;;;5129321;27;19912;-43